createdAt,value
2018-11-14T00:00:02.567Z,8.00
2018-11-14T00:02:31.212Z,7.90
2018-11-14T00:04:59.600Z,7.90
2018-11-14T00:07:27.970Z,7.90
2018-11-14T00:09:56.470Z,7.90
2018-11-14T00:12:24.874Z,7.90
2018-11-14T00:14:53.638Z,7.90
2018-11-14T00:17:22.012Z,7.90
2018-11-14T00:19:50.364Z,7.90
2018-11-14T00:22:18.784Z,7.80
2018-11-14T00:24:47.207Z,7.80
2018-11-14T00:27:15.571Z,7.80
2018-11-14T00:29:43.942Z,7.80
2018-11-14T00:32:12.327Z,7.80
2018-11-14T00:34:40.784Z,7.70
2018-11-14T00:37:09.820Z,7.70
2018-11-14T00:39:38.197Z,7.70
2018-11-14T00:42:06.595Z,7.70
2018-11-14T00:44:34.979Z,7.70
2018-11-14T00:47:03.411Z,7.60
2018-11-14T00:49:31.784Z,7.70
2018-11-14T00:52:00.233Z,7.70
2018-11-14T00:54:28.695Z,7.70
2018-11-14T00:56:57.057Z,7.70
2018-11-14T00:59:25.415Z,7.70
2018-11-14T01:01:53.794Z,7.60
2018-11-14T01:04:22.175Z,7.60
2018-11-14T01:06:50.574Z,7.50
2018-11-14T01:09:19.093Z,7.60
2018-11-14T01:11:47.357Z,7.60
2018-11-14T01:14:15.711Z,7.60
2018-11-14T01:16:44.047Z,7.60
2018-11-14T01:19:12.427Z,7.60
2018-11-14T01:21:41.083Z,7.60
2018-11-14T01:24:09.447Z,7.50
2018-11-14T01:26:38.081Z,7.50
2018-11-14T01:29:07.419Z,7.50
2018-11-14T01:31:35.793Z,7.50
2018-11-14T01:34:04.511Z,7.50
2018-11-14T01:36:32.894Z,7.50
2018-11-14T01:39:01.262Z,7.50
2018-11-14T01:41:29.674Z,7.50
2018-11-14T01:43:58.079Z,7.50
2018-11-14T01:46:26.436Z,7.50
2018-11-14T01:48:54.779Z,7.50
2018-11-14T01:51:23.185Z,7.50
2018-11-14T01:53:51.590Z,7.50
2018-11-14T01:56:19.986Z,7.50
2018-11-14T01:58:49.276Z,7.50
2018-11-14T02:01:17.639Z,7.50
2018-11-14T02:03:46.156Z,7.50
2018-11-14T02:06:14.500Z,7.50
2018-11-14T02:08:42.878Z,7.50
2018-11-14T02:11:11.216Z,7.50
2018-11-14T02:13:39.628Z,7.50
2018-11-14T02:16:08.026Z,7.50
2018-11-14T02:18:36.492Z,7.40
2018-11-14T02:21:04.886Z,7.40
2018-11-14T02:23:33.266Z,7.40
2018-11-14T02:26:01.652Z,7.40
2018-11-14T02:28:30.018Z,7.40
2018-11-14T02:30:58.666Z,7.30
2018-11-14T02:33:27.006Z,7.30
2018-11-14T02:35:55.360Z,7.30
2018-11-14T02:38:23.718Z,7.30
2018-11-14T02:40:52.116Z,7.30
2018-11-14T02:43:20.468Z,7.30
2018-11-14T02:45:48.862Z,7.20
2018-11-14T02:48:17.219Z,7.20
2018-11-14T02:50:45.584Z,7.30
2018-11-14T02:53:13.939Z,7.30
2018-11-14T02:55:42.351Z,7.20
2018-11-14T02:58:10.789Z,7.20
2018-11-14T03:00:40.011Z,7.20
2018-11-14T03:03:08.388Z,7.10
2018-11-14T03:05:36.877Z,7.20
2018-11-14T03:08:05.313Z,7.20
2018-11-14T03:10:33.663Z,7.20
2018-11-14T03:13:02.031Z,7.20
2018-11-14T03:15:30.449Z,7.20
2018-11-14T03:17:58.832Z,7.10
2018-11-14T03:20:27.143Z,7.10
2018-11-14T03:22:55.475Z,7.00
2018-11-14T03:25:23.811Z,7.10
2018-11-14T03:27:52.218Z,7.00
2018-11-14T03:30:20.659Z,7.00
2018-11-14T03:32:48.999Z,7.10
2018-11-14T03:35:17.340Z,7.00
2018-11-14T03:37:45.748Z,7.00
2018-11-14T03:40:15.295Z,7.00
2018-11-14T03:42:43.708Z,7.00
2018-11-14T03:45:13.134Z,7.00
2018-11-14T03:47:41.943Z,7.00
2018-11-14T03:50:10.781Z,7.00
2018-11-14T03:52:39.158Z,6.90
2018-11-14T03:55:07.544Z,6.90
2018-11-14T03:57:36.011Z,6.90
2018-11-14T04:00:07.693Z,6.90
2018-11-14T04:02:36.112Z,7.00
2018-11-14T04:05:04.933Z,7.00
2018-11-14T04:07:33.292Z,6.90
2018-11-14T04:10:01.679Z,6.90
2018-11-14T04:12:30.922Z,6.80
2018-11-14T04:14:59.316Z,6.80
2018-11-14T04:17:27.705Z,6.80
2018-11-14T04:19:56.068Z,6.80
2018-11-14T04:22:24.517Z,6.70
2018-11-14T04:24:52.853Z,6.70
2018-11-14T04:27:21.256Z,6.70
2018-11-14T04:29:49.641Z,6.70
2018-11-14T04:32:18.172Z,6.70
2018-11-14T04:34:46.569Z,6.70
2018-11-14T04:37:14.980Z,6.60
2018-11-14T04:39:43.423Z,6.70
2018-11-14T04:42:11.806Z,6.60
2018-11-14T04:44:40.225Z,6.60
2018-11-14T04:47:08.580Z,6.60
2018-11-14T04:49:36.979Z,6.60
2018-11-14T04:52:05.666Z,6.50
2018-11-14T04:54:34.027Z,6.50
2018-11-14T04:57:02.431Z,6.60
2018-11-14T04:59:30.848Z,6.50
2018-11-14T05:01:59.185Z,6.50
2018-11-14T05:04:27.668Z,6.40
2018-11-14T05:06:56.103Z,6.40
2018-11-14T05:09:24.429Z,6.40
2018-11-14T05:11:52.938Z,6.40
2018-11-14T05:14:21.570Z,6.40
2018-11-14T05:16:50.116Z,6.40
2018-11-14T05:19:18.480Z,6.30
2018-11-14T05:21:46.854Z,6.30
2018-11-14T05:24:15.262Z,6.30
2018-11-14T05:26:43.681Z,6.30
2018-11-14T05:29:12.980Z,6.30
2018-11-14T05:31:41.400Z,6.30
2018-11-14T05:34:09.840Z,6.30
2018-11-14T05:36:38.212Z,6.30
2018-11-14T05:39:08.406Z,6.30
2018-11-14T05:41:36.865Z,6.30
2018-11-14T05:44:05.322Z,6.30
2018-11-14T05:46:33.730Z,6.30
2018-11-14T05:49:02.783Z,6.30
2018-11-14T05:51:31.212Z,6.30
2018-11-14T05:53:59.567Z,6.30
2018-11-14T05:56:27.903Z,6.30
2018-11-14T05:58:56.246Z,6.30
2018-11-14T06:01:24.586Z,6.30
2018-11-14T06:03:52.959Z,6.20
2018-11-14T06:06:21.420Z,6.20
2018-11-14T06:08:49.743Z,6.20
2018-11-14T06:11:18.191Z,6.20
2018-11-14T06:13:46.802Z,6.20
2018-11-14T06:16:21.420Z,6.20
2018-11-14T06:18:53.887Z,6.20
2018-11-14T06:21:22.388Z,6.10
2018-11-14T06:23:50.773Z,6.10
2018-11-14T06:26:19.159Z,6.20
2018-11-14T06:28:47.528Z,6.20
2018-11-14T06:31:15.952Z,6.20
2018-11-14T06:33:44.536Z,6.10
2018-11-14T06:36:12.973Z,6.10
2018-11-14T06:38:41.400Z,6.10
2018-11-14T06:41:09.856Z,6.10
2018-11-14T06:43:38.272Z,6.10
2018-11-14T06:46:06.730Z,6.10
2018-11-14T06:48:35.481Z,6.10
2018-11-14T06:51:04.026Z,6.10
2018-11-14T06:53:32.713Z,6.10
2018-11-14T06:56:01.088Z,6.20
2018-11-14T06:58:29.630Z,6.30
2018-11-14T07:00:58.159Z,6.50
2018-11-14T07:03:26.649Z,6.70
2018-11-14T07:05:55.088Z,6.80
2018-11-14T07:08:23.387Z,6.90
2018-11-14T07:10:51.938Z,7.30
2018-11-14T07:13:20.326Z,7.70
2018-11-14T07:15:48.816Z,8.00
2018-11-14T07:18:17.209Z,8.20
2018-11-14T07:20:45.874Z,8.40
2018-11-14T07:23:14.313Z,8.60
2018-11-14T07:25:42.775Z,8.70
2018-11-14T07:28:11.247Z,9.00
2018-11-14T07:30:39.817Z,9.10
2018-11-14T07:33:09.619Z,9.20
2018-11-14T07:35:38.180Z,9.50
2018-11-14T07:38:43.933Z,9.80
2018-11-14T07:41:15.308Z,9.90
2018-11-14T07:43:44.166Z,10.30
2018-11-14T07:46:12.977Z,11.00
2018-11-14T07:48:41.727Z,11.70
2018-11-14T07:51:10.325Z,12.20
2018-11-14T07:53:38.739Z,12.10
2018-11-14T07:56:07.297Z,12.20
2018-11-14T07:58:35.744Z,12.30
2018-11-14T08:01:04.195Z,12.30
2018-11-14T08:03:32.706Z,12.40
2018-11-14T08:06:01.062Z,12.20
2018-11-14T08:08:29.511Z,12.00
2018-11-14T08:10:57.980Z,12.00
2018-11-14T08:13:27.603Z,11.30
2018-11-14T08:15:57.611Z,10.00
2018-11-14T08:18:26.386Z,8.90
2018-11-14T08:20:55.124Z,8.10
2018-11-14T08:23:23.554Z,7.80
2018-11-14T08:25:52.010Z,7.60
2018-11-14T08:28:20.502Z,7.40
2018-11-14T08:30:49.014Z,7.30
2018-11-14T08:33:17.694Z,7.20
2018-11-14T08:35:46.154Z,7.10
2018-11-14T08:38:14.594Z,7.00
2018-11-14T08:40:42.991Z,7.00
2018-11-14T08:43:11.772Z,7.00
2018-11-14T08:45:40.212Z,7.00
2018-11-14T08:48:09.263Z,6.90
2018-11-14T08:50:37.711Z,7.00
2018-11-14T08:53:06.920Z,6.90
2018-11-14T08:55:35.316Z,7.00
2018-11-14T08:58:03.769Z,6.90
2018-11-14T09:00:32.560Z,6.90
2018-11-14T09:03:00.952Z,6.90
2018-11-14T09:05:29.546Z,6.90
2018-11-14T09:07:57.940Z,6.90
2018-11-14T09:10:27.144Z,6.90
2018-11-14T09:12:55.736Z,6.90
2018-11-14T09:15:25.110Z,6.90
2018-11-14T09:17:53.505Z,6.90
2018-11-14T09:20:23.112Z,6.90
2018-11-14T09:22:51.515Z,6.90
2018-11-14T09:25:24.418Z,6.90
2018-11-14T09:27:52.925Z,7.00
2018-11-14T09:30:22.516Z,7.00
2018-11-14T09:32:50.939Z,7.10
2018-11-14T09:35:20.305Z,7.20
2018-11-14T09:37:49.099Z,7.20
2018-11-14T09:40:18.956Z,7.30
2018-11-14T09:42:48.090Z,7.30
2018-11-14T09:45:17.806Z,7.30
2018-11-14T09:47:46.279Z,7.30
2018-11-14T09:50:19.360Z,7.40
2018-11-14T09:52:49.191Z,7.50
2018-11-14T09:55:17.693Z,7.60
2018-11-14T09:57:46.331Z,7.70
2018-11-14T10:00:20.089Z,7.80
2018-11-14T10:02:49.932Z,8.00
2018-11-14T10:05:19.733Z,8.10
2018-11-14T10:07:48.140Z,8.40
2018-11-14T10:10:17.813Z,8.90
2018-11-14T10:12:46.191Z,9.50
2018-11-14T10:15:16.039Z,9.80
2018-11-14T10:17:44.941Z,9.60
2018-11-14T10:20:15.370Z,9.60
2018-11-14T10:22:44.335Z,9.70
2018-11-14T10:25:13.346Z,9.70
2018-11-14T10:27:42.420Z,9.80
2018-11-14T10:30:13.595Z,10.40
2018-11-14T10:32:42.792Z,11.80
2018-11-14T10:35:11.539Z,13.90
2018-11-14T10:37:40.240Z,15.30
2018-11-14T10:40:12.411Z,16.20
2018-11-14T10:42:42.190Z,16.80
2018-11-14T10:45:13.363Z,17.30
2018-11-14T10:47:42.072Z,17.60
2018-11-14T10:50:14.202Z,18.10
2018-11-14T10:52:42.579Z,18.20
2018-11-14T10:55:11.882Z,18.20
2018-11-14T10:57:40.394Z,18.00
2018-11-14T11:00:25.120Z,17.50
2018-11-14T11:02:58.696Z,17.30
2018-11-14T11:07:33.396Z,17.70
2018-11-14T11:12:11.090Z,17.40
2018-11-14T11:14:44.869Z,16.70
2018-11-14T11:17:18.570Z,15.60
2018-11-14T11:19:46.960Z,15.20
2018-11-14T11:22:16.756Z,15.00
2018-11-14T11:24:45.427Z,14.60
2018-11-14T11:27:13.932Z,14.40
2018-11-14T11:29:42.310Z,14.10
2018-11-14T11:32:11.576Z,14.00
2018-11-14T11:34:40.029Z,13.80
2018-11-14T11:37:08.408Z,13.70
2018-11-14T11:39:36.851Z,13.80
2018-11-14T11:42:05.307Z,13.90
2018-11-14T11:44:33.860Z,13.70
2018-11-14T11:47:02.170Z,13.50
2018-11-14T11:49:30.899Z,13.30
2018-11-14T11:51:59.327Z,13.20
2018-11-14T11:54:27.698Z,13.20
2018-11-14T11:56:56.130Z,13.00
2018-11-14T11:59:24.482Z,12.90
2018-11-14T12:01:53.048Z,12.60
2018-11-14T12:04:21.444Z,12.50
2018-11-14T12:06:49.911Z,12.40
2018-11-14T12:09:18.357Z,12.40
2018-11-14T12:11:47.419Z,12.30
2018-11-14T12:14:15.791Z,12.20
2018-11-14T12:16:44.177Z,12.10
2018-11-14T12:19:16.627Z,12.10
2018-11-14T12:21:45.244Z,12.00
2018-11-14T12:24:14.334Z,12.00
2018-11-14T12:26:42.751Z,12.00
2018-11-14T12:29:11.839Z,12.00
2018-11-14T12:31:40.286Z,12.00
2018-11-14T12:34:08.645Z,12.10
2018-11-14T12:36:37.062Z,12.10
2018-11-14T12:39:07.410Z,12.10
2018-11-14T12:41:35.886Z,12.00
2018-11-14T12:44:05.725Z,12.00
2018-11-14T12:46:34.226Z,12.00
2018-11-14T12:49:04.499Z,11.90
2018-11-14T12:51:35.625Z,11.90
2018-11-14T12:54:05.643Z,11.80
2018-11-14T12:56:37.005Z,11.90
2018-11-14T12:59:05.483Z,11.80
2018-11-14T13:01:36.811Z,11.80
2018-11-14T13:04:06.206Z,11.90
2018-11-14T13:06:35.018Z,11.90
2018-11-14T13:09:04.084Z,11.90
2018-11-14T13:11:32.970Z,11.90
2018-11-14T13:14:04.701Z,11.90
2018-11-14T13:16:35.131Z,12.00
2018-11-14T13:19:05.049Z,12.00
2018-11-14T13:21:33.594Z,12.00
2018-11-14T13:24:02.221Z,12.10
2018-11-14T13:26:31.998Z,12.00
2018-11-14T13:29:00.495Z,12.10
2018-11-14T13:31:28.940Z,12.10
2018-11-14T13:33:57.886Z,12.10
2018-11-14T13:36:26.706Z,12.00
2018-11-14T13:38:55.970Z,12.00
2018-11-14T13:41:25.846Z,12.00
2018-11-14T13:43:54.364Z,12.00
2018-11-14T13:46:22.751Z,11.90
2018-11-14T13:48:51.169Z,11.90
2018-11-14T13:51:19.674Z,11.90
2018-11-14T13:53:48.266Z,11.90
2018-11-14T13:56:16.938Z,11.90
2018-11-14T13:58:46.180Z,11.90
2018-11-14T14:01:18.619Z,11.90
2018-11-14T14:03:48.132Z,11.90
2018-11-14T14:06:18.075Z,11.90
2018-11-14T14:08:46.586Z,11.90
2018-11-14T14:11:15.787Z,11.90
2018-11-14T14:13:50.337Z,11.90
2018-11-14T14:16:18.998Z,11.90
2018-11-14T14:18:53.702Z,11.90
2018-11-14T14:21:22.200Z,11.90
2018-11-14T14:23:50.674Z,11.80
2018-11-14T14:26:19.084Z,11.80
2018-11-14T14:28:47.608Z,11.80
2018-11-14T14:31:17.096Z,11.80
2018-11-14T14:33:45.917Z,11.80
2018-11-14T14:36:15.949Z,11.80
2018-11-14T14:38:44.754Z,11.80
2018-11-14T14:41:13.113Z,11.80
2018-11-14T14:43:42.050Z,11.80
2018-11-14T14:46:10.540Z,11.80
2018-11-14T14:48:40.206Z,11.80
2018-11-14T14:51:08.712Z,11.70
2018-11-14T14:53:38.301Z,11.70
2018-11-14T14:56:06.793Z,11.80
2018-11-14T14:58:36.198Z,11.70
2018-11-14T15:01:04.720Z,11.70
2018-11-14T15:03:33.186Z,11.60
2018-11-14T15:06:01.595Z,11.60
2018-11-14T15:08:30.587Z,11.60
2018-11-14T15:10:59.760Z,11.50
2018-11-14T15:13:28.494Z,11.50
2018-11-14T15:15:57.414Z,11.50
2018-11-14T15:18:25.862Z,11.50
2018-11-14T15:20:54.574Z,11.40
2018-11-14T15:23:23.967Z,11.40
2018-11-14T15:25:53.801Z,11.40
2018-11-14T15:28:22.931Z,11.30
2018-11-14T15:30:52.134Z,11.30
2018-11-14T15:33:21.506Z,11.30
2018-11-14T15:35:50.188Z,11.30
2018-11-14T15:38:18.635Z,11.30
2018-11-14T15:40:47.110Z,11.20
2018-11-14T15:43:16.514Z,11.20
2018-11-14T15:45:45.736Z,11.10
2018-11-14T15:48:14.916Z,11.10
2018-11-14T15:50:43.569Z,11.10
2018-11-14T15:53:12.060Z,11.10
2018-11-14T15:55:42.885Z,11.00
2018-11-14T15:58:13.645Z,10.90
2018-11-14T16:00:44.151Z,10.90
2018-11-14T16:03:12.790Z,10.80
2018-11-14T16:05:41.451Z,10.80
2018-11-14T16:08:09.918Z,10.80
2018-11-14T16:10:38.601Z,10.70
2018-11-14T16:13:07.099Z,10.60
2018-11-14T16:15:37.853Z,10.60
2018-11-14T16:18:08.128Z,10.60
2018-11-14T16:20:37.175Z,10.50
2018-11-14T16:23:06.589Z,10.40
2018-11-14T16:25:35.312Z,10.40
2018-11-14T16:28:04.501Z,10.40
2018-11-14T16:30:35.860Z,10.30
2018-11-14T16:33:05.622Z,10.30
2018-11-14T16:35:34.493Z,10.20
2018-11-14T16:38:03.160Z,10.20
2018-11-14T16:40:32.715Z,10.10
2018-11-14T16:43:02.726Z,10.10
2018-11-14T16:45:31.735Z,10.10
2018-11-14T16:48:00.381Z,10.20
2018-11-14T16:50:29.633Z,10.10
2018-11-14T16:52:58.052Z,10.00
2018-11-14T16:55:26.417Z,9.90
2018-11-14T16:57:55.617Z,9.90
2018-11-14T17:00:27.777Z,9.90
2018-11-14T17:02:56.218Z,9.80
2018-11-14T17:05:27.338Z,9.80
2018-11-14T17:07:56.256Z,9.70
2018-11-14T17:10:24.895Z,9.70
2018-11-14T17:12:55.012Z,9.60
2018-11-14T17:15:24.585Z,9.60
2018-11-14T17:17:54.056Z,9.60
2018-11-14T17:20:23.180Z,9.60
2018-11-14T17:22:53.721Z,9.60
2018-11-14T17:25:22.263Z,9.50
2018-11-14T17:27:50.869Z,9.50
2018-11-14T17:30:21.573Z,9.40
2018-11-14T17:32:50.588Z,9.40
2018-11-14T17:35:19.442Z,9.30
2018-11-14T17:37:48.200Z,9.40
2018-11-14T17:40:21.866Z,9.40
2018-11-14T17:42:52.453Z,9.30
2018-11-14T17:45:23.924Z,9.30
2018-11-14T17:47:52.814Z,9.30
2018-11-14T17:50:23.624Z,9.20
2018-11-14T17:52:52.843Z,9.20
2018-11-14T17:55:22.170Z,9.20
2018-11-14T17:57:50.618Z,9.20
2018-11-14T18:00:21.091Z,9.10
2018-11-14T18:02:50.723Z,9.10
2018-11-14T18:05:24.229Z,9.00
2018-11-14T18:07:53.408Z,9.00
2018-11-14T18:10:24.218Z,9.00
2018-11-14T18:12:55.134Z,8.90
2018-11-14T18:15:24.733Z,8.80
2018-11-14T18:17:53.959Z,8.80
2018-11-14T18:20:25.743Z,8.80
2018-11-14T18:22:54.900Z,8.80
2018-11-14T18:25:23.489Z,8.70
2018-11-14T18:27:51.951Z,8.70
2018-11-14T18:30:22.650Z,8.70
2018-11-14T18:32:52.472Z,8.70
2018-11-14T18:35:21.723Z,8.60
2018-11-14T18:37:51.082Z,8.70
2018-11-14T18:40:21.616Z,8.60
2018-11-14T18:42:50.242Z,8.60
2018-11-14T18:45:21.116Z,8.60
2018-11-14T18:47:49.756Z,8.60
2018-11-14T18:50:44.810Z,8.60
2018-11-14T18:53:13.408Z,8.50
2018-11-14T18:55:41.876Z,8.50
2018-11-14T18:58:10.360Z,8.40
2018-11-14T19:00:38.821Z,8.40
2018-11-14T19:03:07.296Z,8.40
2018-11-14T19:05:35.850Z,8.40
2018-11-14T19:08:04.668Z,8.40
2018-11-14T19:10:34.088Z,8.30
2018-11-14T19:13:02.606Z,8.30
2018-11-14T19:15:32.430Z,8.30
2018-11-14T19:18:00.908Z,8.30
2018-11-14T19:20:31.118Z,8.30
2018-11-14T19:23:03.968Z,8.30
2018-11-14T19:25:34.158Z,8.30
2018-11-14T19:28:03.124Z,8.30
2018-11-14T19:30:34.191Z,8.20
2018-11-14T19:33:03.344Z,8.20
2018-11-14T19:35:31.970Z,8.10
2018-11-14T19:38:01.779Z,8.10
2018-11-14T19:40:31.456Z,8.00
2018-11-14T19:43:01.222Z,7.90
2018-11-14T19:45:31.347Z,7.90
2018-11-14T19:47:59.773Z,7.80
2018-11-14T19:50:28.228Z,7.80
2018-11-14T19:52:56.888Z,7.70
2018-11-14T19:55:26.478Z,7.70
2018-11-14T19:57:56.198Z,7.70
2018-11-14T20:00:27.378Z,7.60
2018-11-14T20:02:55.928Z,7.60
2018-11-14T20:05:24.612Z,7.50
2018-11-14T20:07:53.410Z,7.40
2018-11-14T20:10:23.850Z,7.50
2018-11-14T20:12:53.274Z,7.40
2018-11-14T20:15:23.238Z,7.40
2018-11-14T20:17:51.882Z,7.30
2018-11-14T20:20:22.574Z,7.20
2018-11-14T20:22:51.072Z,7.20
2018-11-14T20:25:19.940Z,7.20
2018-11-14T20:27:48.904Z,7.10
2018-11-14T20:30:20.670Z,7.10
2018-11-14T20:32:49.664Z,7.10
2018-11-14T20:35:19.726Z,7.00
2018-11-14T20:37:48.317Z,7.10
2018-11-14T20:40:18.133Z,7.10
2018-11-14T20:42:47.393Z,7.10
2018-11-14T20:45:21.092Z,7.10
2018-11-14T20:47:49.481Z,7.10
2018-11-14T20:50:19.190Z,7.00
2018-11-14T20:52:49.135Z,7.10
2018-11-14T20:55:17.926Z,7.10
2018-11-14T20:57:46.433Z,7.10
2018-11-14T21:00:20.710Z,7.10
2018-11-14T21:02:49.608Z,7.10
2018-11-14T21:05:17.978Z,7.10
2018-11-14T21:07:46.421Z,7.10
2018-11-14T21:10:16.280Z,7.00
2018-11-14T21:12:44.981Z,7.10
2018-11-14T21:15:15.946Z,7.00
2018-11-14T21:17:44.416Z,7.10
2018-11-14T21:20:12.896Z,7.00
2018-11-14T21:22:41.720Z,7.10
2018-11-14T21:25:11.806Z,7.10
2018-11-14T21:27:41.026Z,7.00
2018-11-14T21:30:10.856Z,7.10
2018-11-14T21:32:39.825Z,7.10
2018-11-14T21:35:13.842Z,7.10
2018-11-14T21:37:43.448Z,7.10
2018-11-14T21:40:12.236Z,7.10
2018-11-14T21:42:40.729Z,7.10
2018-11-14T21:45:11.327Z,7.10
2018-11-14T21:47:44.959Z,7.10
2018-11-14T21:50:13.412Z,7.10
2018-11-14T21:52:41.809Z,7.10
2018-11-14T21:55:10.829Z,7.00
2018-11-14T21:57:39.604Z,7.00
2018-11-14T22:00:11.864Z,7.10
2018-11-14T22:02:40.380Z,7.10
2018-11-14T22:05:09.321Z,7.10
2018-11-14T22:07:41.425Z,7.10
2018-11-14T22:10:17.196Z,7.20
2018-11-14T22:12:45.862Z,7.10
2018-11-14T22:15:15.159Z,7.10
2018-11-14T22:17:43.564Z,7.10
2018-11-14T22:20:13.182Z,7.10
2018-11-14T22:22:42.422Z,7.20
2018-11-14T22:25:11.860Z,7.20
2018-11-14T22:27:40.377Z,7.20
2018-11-14T22:30:13.758Z,7.30
2018-11-14T22:32:42.102Z,7.20
2018-11-14T22:35:12.255Z,7.30
2018-11-14T22:37:40.756Z,7.30
2018-11-14T22:40:11.103Z,7.30
2018-11-14T22:42:39.604Z,7.30
2018-11-14T22:45:09.828Z,7.40
2018-11-14T22:47:38.705Z,7.40
2018-11-14T22:50:08.286Z,7.40
2018-11-14T22:52:36.729Z,7.40
2018-11-14T22:55:06.048Z,7.50
2018-11-14T22:57:34.460Z,7.50
2018-11-14T23:00:02.870Z,7.50
2018-11-14T23:02:31.220Z,7.50
2018-11-14T23:04:59.624Z,7.60
2018-11-14T23:07:28.029Z,7.60
2018-11-14T23:09:56.510Z,7.60
2018-11-14T23:12:24.802Z,7.70
2018-11-14T23:14:53.214Z,7.70
2018-11-14T23:17:21.611Z,7.70
2018-11-14T23:19:49.994Z,7.80
2018-11-14T23:22:18.396Z,7.80
2018-11-14T23:24:46.716Z,7.80
2018-11-14T23:27:15.138Z,7.80
2018-11-14T23:29:43.522Z,7.80
2018-11-14T23:32:11.919Z,7.90
2018-11-14T23:34:44.515Z,7.90
2018-11-14T23:37:12.859Z,7.80
2018-11-14T23:39:41.206Z,7.90
2018-11-14T23:42:09.619Z,7.90
2018-11-14T23:44:38.085Z,7.90
2018-11-14T23:47:07.140Z,7.80
2018-11-14T23:49:35.576Z,7.90
2018-11-14T23:52:03.950Z,7.90
2018-11-14T23:54:32.346Z,7.90
2018-11-14T23:57:00.789Z,7.90
2018-11-14T23:59:29.170Z,8.00
